createdAt,value
2022-08-26T00:00:52.233Z,550.00
2022-08-26T00:01:47.542Z,554.00
2022-08-26T00:02:42.603Z,550.00
2022-08-26T00:03:37.604Z,555.00
2022-08-26T00:04:32.683Z,550.00
2022-08-26T00:05:27.817Z,547.00
2022-08-26T00:06:23.023Z,552.00
2022-08-26T00:07:18.003Z,556.00
2022-08-26T00:08:13.236Z,557.00
2022-08-26T00:09:08.371Z,547.00
2022-08-26T00:10:03.462Z,552.00
2022-08-26T00:10:59.895Z,551.00
2022-08-26T00:11:53.617Z,550.00
2022-08-26T00:12:48.631Z,548.00
2022-08-26T00:13:46.503Z,552.00
2022-08-26T00:14:38.764Z,553.00
2022-08-26T00:15:33.879Z,555.00
2022-08-26T00:16:28.959Z,553.00
2022-08-26T00:17:23.927Z,553.00
2022-08-26T00:18:22.213Z,552.00
2022-08-26T00:19:14.034Z,550.00
2022-08-26T00:20:09.041Z,557.00
2022-08-26T00:21:06.344Z,554.00
2022-08-26T00:21:59.307Z,555.00
2022-08-26T00:22:54.367Z,555.00
2022-08-26T00:23:49.516Z,556.00
2022-08-26T00:24:47.984Z,556.00
2022-08-26T00:25:42.582Z,559.00
2022-08-26T00:26:35.090Z,562.00
2022-08-26T00:27:30.356Z,556.00
2022-08-26T00:28:25.666Z,592.00
2022-08-26T00:29:21.208Z,596.00
2022-08-26T00:30:16.055Z,599.00
2022-08-26T00:31:12.255Z,592.00
2022-08-26T00:32:06.456Z,593.00
2022-08-26T00:33:01.549Z,594.00
2022-08-26T00:33:56.778Z,595.00
2022-08-26T00:34:51.958Z,593.00
2022-08-26T00:35:47.411Z,594.00
2022-08-26T00:36:42.491Z,593.00
2022-08-26T00:37:37.584Z,594.00
2022-08-26T00:38:32.740Z,597.00
2022-08-26T00:39:28.051Z,593.00
2022-08-26T00:40:23.337Z,595.00
2022-08-26T00:41:18.554Z,595.00
2022-08-26T00:42:13.715Z,594.00
2022-08-26T00:43:09.392Z,602.00
2022-08-26T00:44:04.054Z,594.00
2022-08-26T00:44:59.406Z,592.00
2022-08-26T00:45:54.472Z,598.00
2022-08-26T00:46:49.563Z,596.00
2022-08-26T00:47:44.907Z,595.00
2022-08-26T00:48:39.960Z,594.00
2022-08-26T00:49:35.099Z,594.00
2022-08-26T00:50:30.343Z,597.00
2022-08-26T00:51:29.557Z,598.00
2022-08-26T00:52:20.825Z,593.00
2022-08-26T00:53:15.929Z,593.00
2022-08-26T00:54:11.189Z,591.00
2022-08-26T00:55:06.379Z,596.00
2022-08-26T00:56:01.656Z,596.00
2022-08-26T00:56:56.769Z,593.00
2022-08-26T00:57:51.888Z,593.00
2022-08-26T00:58:47.148Z,592.00
2022-08-26T00:59:42.318Z,593.00
2022-08-26T01:00:37.610Z,592.00
2022-08-26T01:01:32.801Z,592.00
2022-08-26T01:02:28.076Z,596.00
2022-08-26T01:03:23.177Z,596.00
2022-08-26T01:04:18.453Z,594.00
2022-08-26T01:05:13.557Z,596.00
2022-08-26T01:06:12.561Z,595.00
2022-08-26T01:07:03.985Z,595.00
2022-08-26T01:07:59.200Z,593.00
2022-08-26T01:08:54.579Z,594.00
2022-08-26T01:09:49.659Z,593.00
2022-08-26T01:10:44.839Z,591.00
2022-08-26T01:11:40.005Z,597.00
2022-08-26T01:12:35.182Z,593.00
2022-08-26T01:13:30.461Z,591.00
2022-08-26T01:14:25.624Z,593.00
2022-08-26T01:15:20.904Z,594.00
2022-08-26T01:16:16.141Z,595.00
2022-08-26T01:17:11.192Z,589.00
2022-08-26T01:18:06.399Z,593.00
2022-08-26T01:19:01.546Z,595.00
2022-08-26T01:19:56.700Z,594.00
2022-08-26T01:20:51.943Z,594.00
2022-08-26T01:21:48.008Z,588.00
2022-08-26T01:22:42.086Z,593.00
2022-08-26T01:23:37.354Z,593.00
2022-08-26T01:24:32.531Z,593.00
2022-08-26T01:25:27.941Z,596.00
2022-08-26T01:26:23.017Z,596.00
2022-08-26T01:27:18.262Z,592.00
2022-08-26T01:28:13.364Z,595.00
2022-08-26T01:29:08.740Z,592.00
2022-08-26T01:30:03.989Z,595.00
2022-08-26T01:30:59.134Z,595.00
2022-08-26T01:31:54.626Z,595.00
2022-08-26T01:32:49.605Z,595.00
2022-08-26T01:33:44.828Z,596.00
2022-08-26T01:34:40.119Z,596.00
2022-08-26T01:35:35.316Z,600.00
2022-08-26T01:36:30.535Z,597.00
2022-08-26T01:37:25.921Z,595.00
2022-08-26T01:38:20.916Z,591.00
2022-08-26T01:39:16.070Z,602.00
2022-08-26T01:40:11.273Z,599.00
2022-08-26T01:41:16.365Z,595.00
2022-08-26T01:42:03.194Z,600.00
2022-08-26T01:42:56.838Z,599.00
2022-08-26T01:43:51.970Z,598.00
2022-08-26T01:44:47.136Z,599.00
2022-08-26T01:45:42.495Z,598.00
2022-08-26T01:46:37.564Z,595.00
2022-08-26T01:47:32.765Z,596.00
2022-08-26T01:48:28.053Z,600.00
2022-08-26T01:49:23.199Z,595.00
2022-08-26T01:50:27.744Z,598.00
2022-08-26T01:51:14.672Z,594.00
2022-08-26T01:52:08.765Z,595.00
2022-08-26T01:53:03.965Z,600.00
2022-08-26T01:53:59.473Z,593.00
2022-08-26T01:54:54.356Z,593.00
2022-08-26T01:55:49.562Z,595.00
2022-08-26T01:56:44.698Z,601.00
2022-08-26T01:57:39.969Z,598.00
2022-08-26T01:58:35.313Z,599.00
2022-08-26T01:59:30.451Z,598.00
2022-08-26T02:00:25.781Z,591.00
2022-08-26T02:01:20.909Z,598.00
2022-08-26T02:02:16.721Z,600.00
2022-08-26T02:03:11.942Z,595.00
2022-08-26T02:04:07.158Z,598.00
2022-08-26T02:05:02.465Z,598.00
2022-08-26T02:05:57.509Z,597.00
2022-08-26T02:06:52.869Z,595.00
2022-08-26T02:07:48.133Z,596.00
2022-08-26T02:08:43.289Z,593.00
2022-08-26T02:09:41.227Z,598.00
2022-08-26T02:10:33.966Z,595.00
2022-08-26T02:11:29.137Z,598.00
2022-08-26T02:12:24.309Z,600.00
2022-08-26T02:13:19.390Z,604.00
2022-08-26T02:14:14.536Z,591.00
2022-08-26T02:15:09.646Z,595.00
2022-08-26T02:16:04.730Z,596.00
2022-08-26T02:16:59.780Z,594.00
2022-08-26T02:17:54.849Z,591.00
2022-08-26T02:18:49.891Z,594.00
2022-08-26T02:19:44.846Z,597.00
2022-08-26T02:20:39.962Z,604.00
2022-08-26T02:21:34.967Z,596.00
2022-08-26T02:22:30.064Z,597.00
2022-08-26T02:23:25.068Z,598.00
2022-08-26T02:24:20.085Z,599.00
2022-08-26T02:25:15.155Z,593.00
2022-08-26T02:26:10.164Z,592.00
2022-08-26T02:27:05.198Z,597.00
2022-08-26T02:28:00.304Z,600.00
2022-08-26T02:28:55.315Z,594.00
2022-08-26T02:29:50.342Z,599.00
2022-08-26T02:30:45.458Z,599.00
2022-08-26T02:31:40.560Z,604.00
2022-08-26T02:32:35.513Z,599.00
2022-08-26T02:33:30.523Z,596.00
2022-08-26T02:34:25.695Z,601.00
2022-08-26T02:35:21.091Z,600.00
2022-08-26T02:36:16.358Z,599.00
2022-08-26T02:37:11.475Z,602.00
2022-08-26T02:38:10.254Z,606.00
2022-08-26T02:39:01.951Z,603.00
2022-08-26T02:39:57.256Z,602.00
2022-08-26T02:40:52.391Z,599.00
2022-08-26T02:41:47.551Z,600.00
2022-08-26T02:42:42.748Z,598.00
2022-08-26T02:43:38.132Z,599.00
2022-08-26T02:44:33.539Z,599.00
2022-08-26T02:45:28.471Z,604.00
2022-08-26T02:46:27.765Z,603.00
2022-08-26T02:47:18.548Z,605.00
2022-08-26T02:48:13.601Z,599.00
2022-08-26T02:49:08.595Z,601.00
2022-08-26T02:50:03.737Z,602.00
2022-08-26T02:50:58.799Z,602.00
2022-08-26T02:51:53.820Z,602.00
2022-08-26T02:52:48.975Z,606.00
2022-08-26T02:53:44.011Z,601.00
2022-08-26T02:54:39.060Z,601.00
2022-08-26T02:55:34.106Z,600.00
2022-08-26T02:56:29.103Z,594.00
2022-08-26T02:57:24.127Z,602.00
2022-08-26T02:58:19.094Z,600.00
2022-08-26T02:59:14.114Z,603.00
2022-08-26T03:00:09.178Z,602.00
2022-08-26T03:01:04.965Z,606.00
2022-08-26T03:01:59.202Z,603.00
2022-08-26T03:02:54.318Z,603.00
2022-08-26T03:03:49.573Z,598.00
2022-08-26T03:04:57.409Z,608.00
2022-08-26T03:05:41.099Z,601.00
2022-08-26T03:06:35.231Z,597.00
2022-08-26T03:07:30.419Z,600.00
2022-08-26T03:08:26.403Z,598.00
2022-08-26T03:09:21.564Z,604.00
2022-08-26T03:10:16.719Z,608.00
2022-08-26T03:11:12.018Z,601.00
2022-08-26T03:12:07.193Z,603.00
2022-08-26T03:13:05.066Z,605.00
2022-08-26T03:13:57.615Z,601.00
2022-08-26T03:14:52.799Z,599.00
2022-08-26T03:15:48.135Z,605.00
2022-08-26T03:16:43.448Z,606.00
2022-08-26T03:17:38.621Z,603.00
2022-08-26T03:18:33.841Z,605.00
2022-08-26T03:19:28.886Z,606.00
2022-08-26T03:20:24.039Z,605.00
2022-08-26T03:21:19.340Z,606.00
2022-08-26T03:22:14.665Z,605.00
2022-08-26T03:23:09.649Z,606.00
2022-08-26T03:24:04.583Z,602.00
2022-08-26T03:24:59.629Z,603.00
2022-08-26T03:25:54.755Z,601.00
2022-08-26T03:26:52.001Z,604.00
2022-08-26T03:27:44.747Z,604.00
2022-08-26T03:28:39.777Z,601.00
2022-08-26T03:29:34.971Z,605.00
2022-08-26T03:30:30.057Z,614.00
2022-08-26T03:31:25.175Z,612.00
2022-08-26T03:32:23.949Z,611.00
2022-08-26T03:33:18.993Z,605.00
2022-08-26T03:34:14.066Z,605.00
2022-08-26T03:35:09.200Z,604.00
2022-08-26T03:36:04.257Z,600.00
2022-08-26T03:36:59.313Z,602.00
2022-08-26T03:37:54.754Z,606.00
2022-08-26T03:38:50.366Z,603.00
2022-08-26T03:39:45.708Z,601.00
2022-08-26T03:40:40.709Z,605.00
2022-08-26T03:41:37.141Z,601.00
2022-08-26T03:42:32.363Z,601.00
2022-08-26T03:43:28.096Z,599.00
2022-08-26T03:44:23.241Z,607.00
2022-08-26T03:45:18.424Z,607.00
2022-08-26T03:46:14.330Z,604.00
2022-08-26T03:47:09.520Z,602.00
2022-08-26T03:48:05.264Z,607.00
2022-08-26T03:49:00.405Z,600.00
2022-08-26T03:49:55.734Z,605.00
2022-08-26T03:50:51.571Z,609.00
2022-08-26T03:51:46.770Z,608.00
2022-08-26T03:52:43.825Z,605.00
2022-08-26T03:53:38.323Z,612.00
2022-08-26T03:54:33.476Z,603.00
2022-08-26T03:55:29.290Z,606.00
2022-08-26T03:56:24.499Z,608.00
2022-08-26T03:57:19.673Z,605.00
2022-08-26T03:58:15.554Z,607.00
2022-08-26T03:59:10.717Z,612.00
2022-08-26T04:00:06.589Z,605.00
2022-08-26T04:01:01.748Z,611.00
2022-08-26T04:01:57.168Z,609.00
2022-08-26T04:02:53.301Z,606.00
2022-08-26T04:03:48.166Z,604.00
2022-08-26T04:04:43.441Z,610.00
2022-08-26T04:05:39.838Z,605.00
2022-08-26T04:06:35.144Z,610.00
2022-08-26T04:07:32.077Z,607.00
2022-08-26T04:08:26.154Z,605.00
2022-08-26T04:09:21.555Z,603.00
2022-08-26T04:10:16.651Z,608.00
2022-08-26T04:11:11.714Z,601.00
2022-08-26T04:12:09.197Z,605.00
2022-08-26T04:13:04.305Z,607.00
2022-08-26T04:13:59.311Z,607.00
2022-08-26T04:14:54.344Z,613.00
2022-08-26T04:15:49.426Z,617.00
2022-08-26T04:16:44.484Z,612.00
2022-08-26T04:17:39.578Z,616.00
2022-08-26T04:18:37.238Z,613.00
2022-08-26T04:19:29.592Z,607.00
2022-08-26T04:20:24.690Z,609.00
2022-08-26T04:21:19.823Z,610.00
2022-08-26T04:22:14.922Z,611.00
2022-08-26T04:23:11.452Z,605.00
2022-08-26T04:24:07.606Z,605.00
2022-08-26T04:25:01.061Z,608.00
2022-08-26T04:25:56.417Z,622.00
2022-08-26T04:26:52.114Z,611.00
2022-08-26T04:27:47.399Z,615.00
2022-08-26T04:28:42.651Z,607.00
2022-08-26T04:29:38.021Z,610.00
2022-08-26T04:30:33.293Z,613.00
2022-08-26T04:31:28.436Z,614.00
2022-08-26T04:32:23.455Z,612.00
2022-08-26T04:33:18.530Z,616.00
2022-08-26T04:34:14.598Z,609.00
2022-08-26T04:35:08.651Z,616.00
2022-08-26T04:36:03.696Z,612.00
2022-08-26T04:36:58.777Z,612.00
2022-08-26T04:37:53.811Z,611.00
2022-08-26T04:38:49.424Z,614.00
2022-08-26T04:39:45.033Z,615.00
2022-08-26T04:40:40.332Z,608.00
2022-08-26T04:41:37.132Z,619.00
2022-08-26T04:42:31.514Z,617.00
2022-08-26T04:43:26.993Z,609.00
2022-08-26T04:44:23.123Z,614.00
2022-08-26T04:45:18.485Z,611.00
2022-08-26T04:46:13.848Z,611.00
2022-08-26T04:47:09.278Z,620.00
2022-08-26T04:48:04.698Z,615.00
2022-08-26T04:48:59.768Z,613.00
2022-08-26T04:49:54.844Z,609.00
2022-08-26T04:50:49.920Z,636.00
2022-08-26T04:51:44.985Z,623.00
2022-08-26T04:52:45.353Z,613.00
2022-08-26T04:53:40.707Z,615.00
2022-08-26T04:54:36.077Z,610.00
2022-08-26T04:55:38.705Z,613.00
2022-08-26T04:56:27.581Z,611.00
2022-08-26T04:57:21.593Z,616.00
2022-08-26T04:58:16.573Z,614.00
2022-08-26T04:59:16.765Z,614.00
2022-08-26T05:00:07.658Z,612.00
2022-08-26T05:01:01.693Z,623.00
2022-08-26T05:01:56.874Z,628.00
2022-08-26T05:02:51.891Z,614.00
2022-08-26T05:03:47.009Z,615.00
2022-08-26T05:04:41.982Z,612.00
2022-08-26T05:05:37.104Z,611.00
2022-08-26T05:06:35.491Z,614.00
2022-08-26T05:07:28.086Z,617.00
2022-08-26T05:08:23.455Z,611.00
2022-08-26T05:09:18.825Z,616.00
2022-08-26T05:10:14.250Z,616.00
2022-08-26T05:11:09.653Z,617.00
2022-08-26T05:12:05.198Z,611.00
2022-08-26T05:13:00.503Z,622.00
2022-08-26T05:13:58.184Z,619.00
2022-08-26T05:14:52.397Z,617.00
2022-08-26T05:15:46.907Z,613.00
2022-08-26T05:16:42.308Z,614.00
2022-08-26T05:17:37.881Z,621.00
2022-08-26T05:18:33.370Z,613.00
2022-08-26T05:19:28.823Z,615.00
2022-08-26T05:20:26.119Z,610.00
2022-08-26T05:21:19.406Z,615.00
2022-08-26T05:22:14.441Z,611.00
2022-08-26T05:23:09.872Z,616.00
2022-08-26T05:24:04.635Z,611.00
2022-08-26T05:24:59.803Z,614.00
2022-08-26T05:25:58.940Z,619.00
2022-08-26T05:26:50.474Z,607.00
2022-08-26T05:27:47.185Z,628.00
2022-08-26T05:28:42.663Z,615.00
2022-08-26T05:29:38.121Z,613.00
2022-08-26T05:30:33.585Z,618.00
2022-08-26T05:31:28.989Z,612.00
2022-08-26T05:32:24.432Z,614.00
2022-08-26T05:33:19.987Z,611.00
2022-08-26T05:34:15.422Z,614.00
2022-08-26T05:35:10.859Z,615.00
2022-08-26T05:36:06.288Z,614.00
2022-08-26T05:37:01.780Z,622.00
2022-08-26T05:37:57.342Z,615.00
2022-08-26T05:38:52.809Z,610.00
2022-08-26T05:39:51.000Z,606.00
2022-08-26T05:40:43.748Z,611.00
2022-08-26T05:41:38.799Z,613.00
2022-08-26T05:42:33.795Z,638.00
2022-08-26T05:43:28.813Z,628.00
2022-08-26T05:44:23.859Z,626.00
2022-08-26T05:45:18.906Z,623.00
2022-08-26T05:46:14.153Z,619.00
2022-08-26T05:47:09.054Z,612.00
2022-08-26T05:48:04.089Z,622.00
2022-08-26T05:48:59.182Z,627.00
2022-08-26T05:49:54.225Z,629.00
2022-08-26T05:50:49.265Z,626.00
2022-08-26T05:51:44.329Z,618.00
2022-08-26T05:52:39.419Z,616.00
2022-08-26T05:53:34.477Z,607.00
2022-08-26T05:54:29.497Z,617.00
2022-08-26T05:55:24.587Z,619.00
2022-08-26T05:56:19.620Z,614.00
2022-08-26T05:57:14.977Z,608.00
2022-08-26T05:58:10.535Z,606.00
2022-08-26T05:59:06.369Z,609.00
2022-08-26T06:00:02.713Z,602.00
2022-08-26T06:00:57.080Z,607.00
2022-08-26T06:01:52.548Z,599.00
2022-08-26T06:02:48.427Z,604.00
2022-08-26T06:03:43.035Z,610.00
2022-08-26T06:04:38.072Z,632.00
2022-08-26T06:05:36.561Z,609.00
2022-08-26T06:06:29.613Z,604.00
2022-08-26T06:07:23.221Z,604.00
2022-08-26T06:08:19.317Z,605.00
2022-08-26T06:09:13.403Z,598.00
2022-08-26T06:10:31.056Z,600.00
2022-08-26T06:11:05.695Z,600.00
2022-08-26T06:12:00.162Z,600.00
2022-08-26T06:12:55.524Z,597.00
2022-08-26T06:13:51.268Z,600.00
2022-08-26T06:14:46.713Z,590.00
2022-08-26T06:15:42.257Z,595.00
2022-08-26T06:16:37.761Z,597.00
2022-08-26T06:17:33.191Z,594.00
2022-08-26T06:18:28.910Z,600.00
2022-08-26T06:19:24.062Z,600.00
2022-08-26T06:20:19.468Z,595.00
2022-08-26T06:21:15.030Z,594.00
2022-08-26T06:22:10.364Z,594.00
2022-08-26T06:23:09.661Z,595.00
2022-08-26T06:24:05.062Z,580.00
2022-08-26T06:25:00.514Z,581.00
2022-08-26T06:25:56.182Z,578.00
2022-08-26T06:26:51.682Z,591.00
2022-08-26T06:27:47.133Z,604.00
2022-08-26T06:28:43.582Z,599.00
2022-08-26T06:29:38.188Z,606.00
2022-08-26T06:30:33.640Z,611.00
2022-08-26T06:31:29.312Z,617.00
2022-08-26T06:32:24.693Z,601.00
2022-08-26T06:33:20.076Z,598.00
2022-08-26T06:34:15.645Z,585.00
2022-08-26T06:35:12.138Z,596.00
2022-08-26T06:36:06.575Z,603.00
2022-08-26T06:37:01.944Z,605.00
2022-08-26T06:37:56.696Z,598.00
2022-08-26T06:38:51.757Z,602.00
2022-08-26T06:39:46.822Z,603.00
2022-08-26T06:40:41.904Z,586.00
2022-08-26T06:41:40.179Z,587.00
2022-08-26T06:42:32.975Z,591.00
2022-08-26T06:43:27.011Z,586.00
2022-08-26T06:44:22.035Z,544.00
2022-08-26T06:45:17.063Z,549.00
2022-08-26T06:46:14.421Z,550.00
2022-08-26T06:47:09.839Z,552.00
2022-08-26T06:48:05.305Z,549.00
2022-08-26T06:49:00.759Z,554.00
2022-08-26T06:49:56.160Z,551.00
2022-08-26T06:50:51.701Z,551.00
2022-08-26T06:51:47.070Z,554.00
2022-08-26T06:52:42.470Z,552.00
2022-08-26T06:53:37.981Z,547.00
2022-08-26T06:54:33.386Z,542.00
2022-08-26T06:55:28.940Z,550.00
2022-08-26T06:56:24.377Z,557.00
2022-08-26T06:57:20.351Z,549.00
2022-08-26T06:58:15.859Z,553.00
2022-08-26T06:59:11.322Z,557.00
2022-08-26T07:00:06.400Z,547.00
2022-08-26T07:01:09.101Z,551.00
2022-08-26T07:01:57.451Z,554.00
2022-08-26T07:02:51.581Z,555.00
2022-08-26T07:03:46.720Z,561.00
2022-08-26T07:04:41.616Z,558.00
2022-08-26T07:05:36.627Z,559.00
2022-08-26T07:06:31.638Z,514.00
2022-08-26T07:07:26.710Z,515.00
2022-08-26T07:08:21.740Z,514.00
2022-08-26T07:09:16.797Z,507.00
2022-08-26T07:10:11.833Z,510.00
2022-08-26T07:11:06.890Z,509.00
2022-08-26T07:12:01.886Z,500.00
2022-08-26T07:12:56.966Z,502.00
2022-08-26T07:13:52.093Z,502.00
2022-08-26T07:14:47.394Z,498.00
2022-08-26T07:15:42.185Z,498.00
2022-08-26T07:16:37.144Z,503.00
2022-08-26T07:17:32.119Z,504.00
2022-08-26T07:18:27.220Z,506.00
2022-08-26T07:19:31.240Z,502.00
2022-08-26T07:20:18.416Z,502.00
2022-08-26T07:21:12.522Z,500.00
2022-08-26T07:22:07.567Z,494.00
2022-08-26T07:23:02.866Z,498.00
2022-08-26T07:24:01.316Z,500.00
2022-08-26T07:24:53.977Z,497.00
2022-08-26T07:25:49.471Z,506.00
2022-08-26T07:26:44.756Z,510.00
2022-08-26T07:27:40.198Z,524.00
2022-08-26T07:28:35.193Z,522.00
2022-08-26T07:29:30.218Z,534.00
2022-08-26T07:30:25.236Z,526.00
2022-08-26T07:31:20.310Z,535.00
2022-08-26T07:32:15.299Z,532.00
2022-08-26T07:33:10.290Z,507.00
2022-08-26T07:34:05.327Z,508.00
2022-08-26T07:35:00.304Z,504.00
2022-08-26T07:35:55.298Z,490.00
2022-08-26T07:36:50.288Z,484.00
2022-08-26T07:37:45.333Z,478.00
2022-08-26T07:38:40.302Z,479.00
2022-08-26T07:39:35.488Z,466.00
2022-08-26T07:40:30.505Z,461.00
2022-08-26T07:42:23.399Z,453.00
2022-08-26T07:43:18.743Z,453.00
2022-08-26T07:44:14.279Z,448.00
2022-08-26T07:45:09.698Z,456.00
2022-08-26T07:46:05.071Z,462.00
2022-08-26T07:47:00.617Z,463.00
2022-08-26T07:47:56.191Z,467.00
2022-08-26T07:48:51.640Z,466.00
2022-08-26T07:49:47.034Z,468.00
2022-08-26T07:50:50.173Z,473.00
2022-08-26T07:51:38.894Z,487.00
2022-08-26T07:52:33.220Z,472.00
2022-08-26T07:53:28.660Z,466.00
2022-08-26T07:54:27.004Z,470.00
2022-08-26T07:55:19.463Z,465.00
2022-08-26T07:56:14.915Z,454.00
2022-08-26T07:57:10.504Z,461.00
2022-08-26T07:58:05.856Z,447.00
2022-08-26T07:59:01.360Z,453.00
2022-08-26T07:59:56.811Z,456.00
2022-08-26T08:00:52.244Z,454.00
2022-08-26T08:01:47.736Z,452.00
2022-08-26T08:02:43.072Z,455.00
2022-08-26T08:03:38.123Z,453.00
2022-08-26T08:04:33.303Z,453.00
2022-08-26T08:05:30.587Z,448.00
2022-08-26T08:06:27.360Z,453.00
2022-08-26T08:07:18.583Z,448.00
2022-08-26T08:08:26.942Z,451.00
2022-08-26T08:09:09.653Z,450.00
2022-08-26T08:10:07.821Z,453.00
2022-08-26T08:10:59.769Z,455.00
2022-08-26T08:11:53.882Z,459.00
2022-08-26T08:12:49.024Z,461.00
2022-08-26T08:13:44.005Z,459.00
2022-08-26T08:14:39.183Z,463.00
2022-08-26T08:15:34.629Z,466.00
2022-08-26T08:16:32.287Z,459.00
2022-08-26T08:17:29.672Z,454.00
2022-08-26T08:18:24.961Z,447.00
2022-08-26T08:19:20.441Z,452.00
2022-08-26T08:20:15.822Z,446.00
2022-08-26T08:21:21.974Z,452.00
2022-08-26T08:22:17.240Z,453.00
2022-08-26T08:23:03.033Z,457.00
2022-08-26T08:23:57.441Z,452.00
2022-08-26T08:24:53.279Z,460.00
2022-08-26T08:25:48.363Z,453.00
2022-08-26T08:26:43.753Z,453.00
2022-08-26T08:27:39.185Z,464.00
2022-08-26T08:28:34.692Z,452.00
2022-08-26T08:29:30.152Z,452.00
2022-08-26T08:30:25.627Z,458.00
2022-08-26T08:31:38.671Z,451.00
2022-08-26T08:32:16.760Z,448.00
2022-08-26T08:33:10.769Z,445.00
2022-08-26T08:34:05.775Z,446.00
2022-08-26T08:35:00.884Z,456.00
2022-08-26T08:35:55.947Z,450.00
2022-08-26T08:36:53.293Z,446.00
2022-08-26T08:37:46.174Z,452.00
2022-08-26T08:38:41.027Z,453.00
2022-08-26T08:39:36.072Z,448.00
2022-08-26T08:40:32.294Z,444.00
2022-08-26T08:41:27.366Z,443.00
2022-08-26T08:42:23.623Z,446.00
2022-08-26T08:43:17.545Z,474.00
2022-08-26T08:44:12.606Z,465.00
2022-08-26T08:45:07.659Z,457.00
2022-08-26T08:46:02.771Z,470.00
2022-08-26T08:46:57.845Z,481.00
2022-08-26T08:47:54.108Z,463.00
2022-08-26T08:48:48.565Z,448.00
2022-08-26T08:49:43.917Z,452.00
2022-08-26T08:50:39.215Z,454.00
2022-08-26T08:51:34.575Z,459.00
2022-08-26T08:52:30.101Z,460.00
2022-08-26T08:53:25.586Z,453.00
2022-08-26T08:54:22.068Z,473.00
2022-08-26T08:55:18.308Z,471.00
2022-08-26T08:56:12.178Z,454.00
2022-08-26T08:57:07.624Z,451.00
2022-08-26T08:58:03.147Z,450.00
2022-08-26T08:58:58.626Z,446.00
2022-08-26T08:59:54.118Z,450.00
2022-08-26T09:00:49.223Z,464.00
2022-08-26T09:01:44.320Z,454.00
2022-08-26T09:02:39.395Z,448.00
2022-08-26T09:03:35.908Z,449.00
2022-08-26T09:04:30.960Z,455.00
2022-08-26T09:05:26.046Z,452.00
2022-08-26T09:06:21.090Z,445.00
2022-08-26T09:07:16.156Z,448.00
2022-08-26T09:08:11.626Z,448.00
2022-08-26T09:09:06.256Z,458.00
2022-08-26T09:10:01.346Z,457.00
2022-08-26T09:10:56.525Z,449.00
2022-08-26T09:11:51.526Z,450.00
2022-08-26T09:12:46.614Z,448.00
2022-08-26T09:13:42.415Z,452.00
2022-08-26T09:14:37.861Z,448.00
2022-08-26T09:15:33.166Z,454.00
2022-08-26T09:16:28.690Z,456.00
2022-08-26T09:17:24.098Z,453.00
2022-08-26T09:18:19.543Z,449.00
2022-08-26T09:19:19.054Z,450.00
2022-08-26T09:20:12.676Z,453.00
2022-08-26T09:21:08.167Z,461.00
2022-08-26T09:22:08.793Z,452.00
2022-08-26T09:23:00.329Z,453.00
2022-08-26T09:23:54.669Z,448.00
2022-08-26T09:24:50.098Z,453.00
2022-08-26T09:25:45.584Z,451.00
2022-08-26T09:26:41.000Z,439.00
2022-08-26T09:27:36.420Z,451.00
2022-08-26T09:28:31.966Z,446.00
2022-08-26T09:29:27.425Z,451.00
2022-08-26T09:30:22.877Z,451.00
2022-08-26T09:31:18.606Z,448.00
2022-08-26T09:32:13.889Z,450.00
2022-08-26T09:33:10.818Z,442.00
2022-08-26T09:34:04.072Z,459.00
2022-08-26T09:34:59.178Z,457.00
2022-08-26T09:35:54.214Z,457.00
2022-08-26T09:36:49.319Z,449.00
2022-08-26T09:38:39.496Z,451.00
2022-08-26T09:39:34.491Z,460.00
2022-08-26T09:40:29.653Z,456.00
2022-08-26T09:41:24.651Z,456.00
2022-08-26T09:42:20.895Z,457.00
2022-08-26T09:43:22.221Z,458.00
2022-08-26T09:44:14.574Z,457.00
2022-08-26T09:45:07.155Z,455.00
2022-08-26T09:46:02.636Z,458.00
2022-08-26T09:46:58.187Z,462.00
2022-08-26T09:47:53.555Z,467.00
2022-08-26T09:48:51.644Z,466.00
2022-08-26T09:49:44.455Z,477.00
2022-08-26T09:50:39.776Z,454.00
2022-08-26T09:51:35.181Z,466.00
2022-08-26T09:52:30.650Z,459.00
2022-08-26T09:53:28.637Z,457.00
2022-08-26T09:54:21.542Z,450.00
2022-08-26T09:55:18.001Z,466.00
2022-08-26T09:56:12.488Z,449.00
2022-08-26T09:57:07.979Z,453.00
2022-08-26T09:58:07.900Z,460.00
2022-08-26T09:58:59.775Z,453.00
2022-08-26T09:59:54.218Z,454.00
2022-08-26T10:00:49.835Z,446.00
2022-08-26T10:01:45.351Z,446.00
2022-08-26T10:02:40.454Z,446.00
2022-08-26T10:03:36.898Z,439.00
2022-08-26T10:04:35.504Z,441.00
2022-08-26T10:05:30.876Z,438.00
2022-08-26T10:06:26.315Z,433.00
2022-08-26T10:07:21.679Z,440.00
2022-08-26T10:08:17.165Z,437.00
2022-08-26T10:09:12.724Z,434.00
2022-08-26T10:10:08.184Z,439.00
2022-08-26T10:11:03.674Z,435.00
2022-08-26T10:11:58.702Z,435.00
2022-08-26T10:12:53.754Z,433.00
2022-08-26T10:13:48.879Z,431.00
2022-08-26T10:15:39.033Z,421.00
2022-08-26T10:16:34.142Z,431.00
2022-08-26T10:17:30.749Z,426.00
2022-08-26T10:18:24.306Z,435.00
2022-08-26T10:19:19.440Z,426.00
2022-08-26T10:20:23.599Z,430.00
2022-08-26T10:21:10.539Z,434.00
2022-08-26T10:22:04.689Z,425.00
2022-08-26T10:23:00.106Z,429.00
2022-08-26T10:23:55.580Z,433.00
2022-08-26T10:24:54.478Z,431.00
2022-08-26T10:25:46.391Z,443.00
2022-08-26T10:26:41.780Z,441.00
2022-08-26T10:27:37.201Z,441.00
2022-08-26T10:28:32.693Z,439.00
2022-08-26T10:29:28.005Z,433.00
2022-08-26T10:30:23.602Z,440.00
2022-08-26T10:31:20.056Z,437.00
2022-08-26T10:32:14.431Z,445.00
2022-08-26T10:33:09.899Z,439.00
2022-08-26T10:34:05.225Z,442.00
2022-08-26T10:35:01.248Z,435.00
2022-08-26T10:35:55.359Z,434.00
2022-08-26T10:37:14.111Z,437.00
2022-08-26T10:37:46.463Z,444.00
2022-08-26T10:38:40.511Z,441.00
2022-08-26T10:39:35.630Z,432.00
2022-08-26T10:40:30.809Z,435.00
2022-08-26T10:41:28.488Z,436.00
2022-08-26T10:42:23.506Z,440.00
2022-08-26T10:43:18.590Z,439.00
2022-08-26T10:45:39.884Z,427.00
2022-08-26T10:46:33.486Z,432.00
2022-08-26T10:47:29.042Z,430.00
2022-08-26T10:48:24.622Z,434.00
2022-08-26T10:49:20.074Z,433.00
2022-08-26T10:50:15.456Z,433.00
2022-08-26T10:51:10.924Z,433.00
2022-08-26T10:52:12.311Z,435.00
2022-08-26T10:53:02.825Z,438.00
2022-08-26T10:53:57.323Z,442.00
2022-08-26T10:54:52.852Z,442.00
2022-08-26T10:55:48.237Z,441.00
2022-08-26T10:56:43.464Z,439.00
2022-08-26T10:57:38.979Z,440.00
2022-08-26T10:58:34.503Z,442.00
2022-08-26T10:59:30.016Z,437.00
2022-08-26T11:00:27.428Z,446.00
2022-08-26T11:01:22.777Z,446.00
2022-08-26T11:02:16.381Z,453.00
2022-08-26T11:03:16.162Z,446.00
2022-08-26T11:04:08.302Z,446.00
2022-08-26T11:05:02.712Z,450.00
2022-08-26T11:05:58.281Z,450.00
2022-08-26T11:06:53.623Z,439.00
2022-08-26T11:07:49.000Z,443.00
2022-08-26T11:08:44.525Z,451.00
2022-08-26T11:09:39.963Z,448.00
2022-08-26T11:10:35.352Z,444.00
2022-08-26T11:11:30.742Z,446.00
2022-08-26T11:12:26.214Z,440.00
2022-08-26T11:13:21.692Z,446.00
2022-08-26T11:14:17.387Z,448.00
2022-08-26T11:15:13.758Z,448.00
2022-08-26T11:16:08.463Z,447.00
2022-08-26T11:17:03.829Z,444.00
2022-08-26T11:18:00.129Z,452.00
2022-08-26T11:18:54.721Z,453.00
2022-08-26T11:20:00.750Z,443.00
2022-08-26T11:20:47.145Z,454.00
2022-08-26T11:21:41.100Z,449.00
2022-08-26T11:22:36.641Z,449.00
2022-08-26T11:23:32.379Z,454.00
2022-08-26T11:24:27.760Z,448.00
2022-08-26T11:25:26.576Z,451.00
2022-08-26T11:26:37.671Z,455.00
2022-08-26T11:27:15.267Z,448.00
2022-08-26T11:28:09.947Z,442.00
2022-08-26T11:29:12.181Z,450.00
2022-08-26T11:30:01.563Z,445.00
2022-08-26T11:30:58.149Z,436.00
2022-08-26T11:31:51.728Z,440.00
2022-08-26T11:32:48.664Z,443.00
2022-08-26T11:33:42.529Z,441.00
2022-08-26T11:34:37.954Z,447.00